createdAt,value
2022-12-18T00:00:31.960Z,20.02
2022-12-18T00:03:39.239Z,25.13
2022-12-18T00:06:43.955Z,27.70
2022-12-18T00:09:49.010Z,28.27
2022-12-18T00:12:52.603Z,26.30
2022-12-18T00:15:56.797Z,36.33
2022-12-18T00:19:01.502Z,34.25
2022-12-18T00:22:05.807Z,34.15
2022-12-18T00:25:09.545Z,28.55
2022-12-18T00:28:13.523Z,33.53
2022-12-18T00:31:20.380Z,34.42
2022-12-18T00:34:23.777Z,36.07
2022-12-18T00:37:29.494Z,34.28
2022-12-18T00:40:35.234Z,33.40
2022-12-18T00:43:41.347Z,29.67
2022-12-18T00:46:47.113Z,33.50
2022-12-18T00:49:52.240Z,33.72
2022-12-18T00:53:02.034Z,35.08
2022-12-18T00:56:07.447Z,31.67
2022-12-18T00:59:10.833Z,32.70
2022-12-18T01:02:15.754Z,34.17
2022-12-18T01:05:19.385Z,36.55
2022-12-18T01:08:23.322Z,37.65
2022-12-18T01:11:28.482Z,36.17
2022-12-18T01:14:33.253Z,37.67
2022-12-18T01:17:37.013Z,39.53
2022-12-18T01:20:40.621Z,35.70
2022-12-18T01:23:47.287Z,38.88
2022-12-18T01:26:50.986Z,37.83
2022-12-18T01:29:55.140Z,36.60
2022-12-18T01:32:59.448Z,36.22
2022-12-18T01:36:03.188Z,35.78
2022-12-18T01:39:13.898Z,35.03
2022-12-18T01:42:19.066Z,34.67
2022-12-18T01:45:29.575Z,35.65
2022-12-18T01:48:33.296Z,36.90
2022-12-18T01:51:37.233Z,36.05
2022-12-18T01:54:41.493Z,38.10
2022-12-18T01:57:45.430Z,33.13
2022-12-18T02:00:48.802Z,33.95
2022-12-18T02:03:52.499Z,37.42
2022-12-18T02:07:07.504Z,55.35
2022-12-18T02:10:25.613Z,55.25
2022-12-18T02:13:38.187Z,64.82
2022-12-18T02:17:04.997Z,59.30
2022-12-18T02:20:46.770Z,63.45
2022-12-18T02:23:58.822Z,87.32
2022-12-18T02:27:07.025Z,86.72
2022-12-18T02:30:10.817Z,76.07
2022-12-18T02:33:16.329Z,82.47
2022-12-18T02:36:23.509Z,83.28
2022-12-18T02:39:32.124Z,82.00
2022-12-18T02:42:40.127Z,70.10
2022-12-18T02:45:56.013Z,41.70
2022-12-18T02:49:29.268Z,62.85
2022-12-18T02:53:04.175Z,63.92
2022-12-18T02:56:25.790Z,65.22
2022-12-18T02:59:58.633Z,47.35
2022-12-18T03:03:20.545Z,39.50
2022-12-18T03:06:35.589Z,42.33
2022-12-18T03:09:42.963Z,44.67
2022-12-18T03:12:53.876Z,42.70
2022-12-18T03:16:00.251Z,50.13
2022-12-18T03:19:11.943Z,49.30
2022-12-18T03:22:18.965Z,44.97
2022-12-18T03:25:29.038Z,44.28
2022-12-18T03:28:35.505Z,52.30
2022-12-18T03:31:44.403Z,53.42
2022-12-18T03:34:52.356Z,54.20
2022-12-18T03:37:58.623Z,49.88
2022-12-18T03:41:24.946Z,46.42
2022-12-18T03:44:49.194Z,34.63
2022-12-18T03:47:59.820Z,40.08
2022-12-18T03:51:38.684Z,33.95
2022-12-18T03:54:44.566Z,41.25
2022-12-18T03:57:52.951Z,41.50
2022-12-18T04:01:01.703Z,44.08
2022-12-18T04:04:08.717Z,37.00
2022-12-18T04:07:16.339Z,41.08
2022-12-18T04:10:22.745Z,37.67
2022-12-18T04:13:34.026Z,41.63
2022-12-18T04:16:41.189Z,40.55
2022-12-18T04:19:47.619Z,38.40
2022-12-18T04:22:51.785Z,36.35
2022-12-18T04:25:56.845Z,40.78
2022-12-18T04:29:16.637Z,36.63
2022-12-18T04:32:20.108Z,36.92
2022-12-18T04:35:24.644Z,34.70
2022-12-18T04:38:28.438Z,34.75
2022-12-18T04:41:39.892Z,34.70
2022-12-18T04:44:43.282Z,37.05
2022-12-18T04:47:46.195Z,33.53
2022-12-18T04:50:49.940Z,37.08
2022-12-18T04:53:53.623Z,39.00
2022-12-18T04:56:57.734Z,36.20
2022-12-18T05:00:00.677Z,33.40
2022-12-18T05:03:04.262Z,28.05
2022-12-18T05:06:08.407Z,30.75
2022-12-18T05:09:11.753Z,32.20
2022-12-18T05:12:14.711Z,36.65
2022-12-18T05:15:18.101Z,35.67
2022-12-18T05:18:22.343Z,34.42
2022-12-18T05:21:26.111Z,30.25
2022-12-18T05:24:29.172Z,35.78
2022-12-18T05:27:34.434Z,38.35
2022-12-18T05:30:38.112Z,38.95
2022-12-18T05:33:42.355Z,41.47
2022-12-18T05:36:46.175Z,38.00
2022-12-18T05:39:49.866Z,36.13
2022-12-18T05:42:53.314Z,38.05
2022-12-18T05:45:58.460Z,36.65
2022-12-18T05:49:05.084Z,32.25
2022-12-18T05:52:08.122Z,38.67
2022-12-18T05:55:11.349Z,35.10
2022-12-18T05:58:21.939Z,40.75
2022-12-18T06:01:28.312Z,40.15
2022-12-18T06:04:31.353Z,37.50
2022-12-18T06:07:34.462Z,37.40
2022-12-18T06:10:37.662Z,38.40
2022-12-18T06:13:41.655Z,32.63
2022-12-18T06:16:45.369Z,33.10
2022-12-18T06:19:48.956Z,32.95
2022-12-18T06:22:53.028Z,31.92
2022-12-18T06:25:57.545Z,30.52
2022-12-18T06:29:01.561Z,28.35
2022-12-18T06:32:06.492Z,26.92
2022-12-18T06:35:11.637Z,28.80
2022-12-18T06:38:15.585Z,26.55
2022-12-18T06:41:22.423Z,29.85
2022-12-18T06:44:25.635Z,29.67
2022-12-18T06:47:28.901Z,32.28
2022-12-18T06:50:31.929Z,33.97
2022-12-18T06:53:35.532Z,31.35
2022-12-18T06:56:38.616Z,26.00
2022-12-18T06:59:42.594Z,28.98
2022-12-18T07:02:45.617Z,30.40
2022-12-18T07:05:49.432Z,26.13
2022-12-18T07:08:53.810Z,23.13
2022-12-18T07:11:57.914Z,22.50
2022-12-18T07:15:01.457Z,23.83
2022-12-18T07:18:05.150Z,23.42
2022-12-18T07:21:10.252Z,22.25
2022-12-18T07:24:13.504Z,20.95
2022-12-18T07:27:17.154Z,19.90
2022-12-18T07:30:20.722Z,20.10
2022-12-18T07:33:24.475Z,20.70
2022-12-18T07:36:28.299Z,22.60
2022-12-18T07:39:31.590Z,24.85
2022-12-18T07:42:36.270Z,27.00
2022-12-18T07:45:40.187Z,21.10
2022-12-18T07:48:45.234Z,24.05
2022-12-18T07:51:52.235Z,28.13
2022-12-18T07:54:55.541Z,25.27
2022-12-18T07:58:01.993Z,26.55
2022-12-18T08:01:10.184Z,32.03
2022-12-18T08:04:15.714Z,31.08
2022-12-18T08:07:18.785Z,27.67
2022-12-18T08:10:22.905Z,28.15
2022-12-18T08:13:26.713Z,34.60
2022-12-18T08:16:30.055Z,28.13
2022-12-18T08:19:34.581Z,31.83
2022-12-18T08:22:39.203Z,32.55
2022-12-18T08:25:42.676Z,28.15
2022-12-18T08:28:45.834Z,31.42
2022-12-18T08:31:49.850Z,32.35
2022-12-18T08:34:53.341Z,27.08
2022-12-18T08:37:56.972Z,25.52
2022-12-18T08:41:13.229Z,25.30
2022-12-18T08:44:34.718Z,27.02
2022-12-18T08:47:38.910Z,25.48
2022-12-18T08:50:42.027Z,25.98
2022-12-18T08:53:46.601Z,24.02
2022-12-18T08:56:49.658Z,22.00
2022-12-18T08:59:52.932Z,16.17
2022-12-18T09:02:56.129Z,23.67
2022-12-18T09:05:59.696Z,27.55
2022-12-18T09:09:03.144Z,22.00
2022-12-18T09:12:06.512Z,17.30
2022-12-18T09:15:09.919Z,16.00
2022-12-18T09:18:14.697Z,23.73
2022-12-18T09:21:21.378Z,22.08
2022-12-18T09:24:24.399Z,23.45
2022-12-18T09:27:28.060Z,19.25
2022-12-18T09:30:31.983Z,24.70
2022-12-18T09:33:39.101Z,20.15
2022-12-18T09:36:43.383Z,20.30
2022-12-18T09:39:47.562Z,17.15
2022-12-18T09:42:57.664Z,22.92
2022-12-18T09:46:06.482Z,25.85
2022-12-18T09:49:16.252Z,27.17
2022-12-18T09:52:36.026Z,15.35
2022-12-18T09:55:43.854Z,18.67
2022-12-18T09:59:00.717Z,17.50
2022-12-18T10:02:24.135Z,21.33
2022-12-18T10:05:56.643Z,20.38
2022-12-18T10:09:11.890Z,19.40
2022-12-18T10:12:25.462Z,18.02
2022-12-18T10:15:46.343Z,19.05
2022-12-18T10:19:24.327Z,14.90
2022-12-18T10:22:37.873Z,18.83
2022-12-18T10:25:47.530Z,20.05
2022-12-18T10:28:51.925Z,16.50
2022-12-18T10:31:56.238Z,16.20
2022-12-18T10:35:01.132Z,10.25
2022-12-18T10:38:14.243Z,13.93
2022-12-18T10:41:21.720Z,17.35
2022-12-18T10:44:29.167Z,12.90
2022-12-18T10:47:36.196Z,12.00
2022-12-18T10:54:08.162Z,12.25
2022-12-18T10:57:29.198Z,12.80
2022-12-18T11:00:33.256Z,14.95
2022-12-18T11:03:43.954Z,14.52
2022-12-18T11:07:07.446Z,15.63
2022-12-18T11:10:20.819Z,12.27
2022-12-18T11:13:27.659Z,13.48
2022-12-18T11:16:38.821Z,9.20
2022-12-18T11:19:43.552Z,12.65
2022-12-18T11:23:00.758Z,14.50
2022-12-18T11:26:08.078Z,11.35
2022-12-18T11:29:18.897Z,14.17
2022-12-18T11:32:27.559Z,19.98
2022-12-18T11:35:57.054Z,19.13
2022-12-18T11:39:17.726Z,12.98
2022-12-18T11:42:53.200Z,19.10
2022-12-18T11:46:19.974Z,23.08
2022-12-18T11:49:38.191Z,25.48
2022-12-18T11:52:43.083Z,36.38
2022-12-18T11:55:58.220Z,32.35
2022-12-18T11:59:27.721Z,29.65
2022-12-18T12:02:47.884Z,33.20
2022-12-18T12:06:13.589Z,30.33
2022-12-18T12:09:44.767Z,37.75
2022-12-18T12:13:15.013Z,39.42
2022-12-18T12:20:36.567Z,53.65
2022-12-18T12:23:45.853Z,48.60
2022-12-18T12:27:35.455Z,47.05
2022-12-18T12:31:06.502Z,56.85
2022-12-18T12:34:57.642Z,63.00
2022-12-18T12:38:15.806Z,65.93
2022-12-18T12:41:44.160Z,64.38
2022-12-18T12:44:57.360Z,75.82
2022-12-18T12:48:04.105Z,63.83
2022-12-18T12:51:25.710Z,66.72
2022-12-18T12:54:30.627Z,46.72
2022-12-18T12:57:39.628Z,90.57
2022-12-18T13:01:03.378Z,59.00
2022-12-18T13:04:25.636Z,58.75
2022-12-18T13:07:41.695Z,30.52
2022-12-18T13:10:46.787Z,45.50
2022-12-18T13:13:52.864Z,42.65
2022-12-18T13:17:31.023Z,40.97
2022-12-18T13:20:40.327Z,37.60
2022-12-18T13:23:44.270Z,58.22
2022-12-18T13:26:47.813Z,52.85
2022-12-18T13:29:54.154Z,55.20
2022-12-18T13:33:15.561Z,46.03
2022-12-18T13:36:30.065Z,53.25
2022-12-18T13:39:35.919Z,53.33
2022-12-18T13:43:00.328Z,64.07
2022-12-18T13:46:06.887Z,59.05
2022-12-18T13:49:16.951Z,62.00
2022-12-18T13:52:24.484Z,70.03
2022-12-18T13:55:28.844Z,73.45
2022-12-18T13:58:32.482Z,79.85
2022-12-18T14:01:37.044Z,61.78
2022-12-18T14:04:45.137Z,67.35
2022-12-18T14:07:57.249Z,57.35
2022-12-18T14:11:07.600Z,66.45
2022-12-18T14:14:21.858Z,50.13
2022-12-18T14:21:08.486Z,55.80
2022-12-18T14:24:25.612Z,74.43
2022-12-18T14:27:35.671Z,91.50
2022-12-18T14:30:49.818Z,83.85
2022-12-18T14:33:58.235Z,88.55
2022-12-18T14:37:10.034Z,82.35
2022-12-18T14:40:16.582Z,76.43
2022-12-18T14:43:20.430Z,83.82
2022-12-18T14:46:42.377Z,76.95
2022-12-18T14:49:54.766Z,57.30
2022-12-18T14:53:06.658Z,73.93
2022-12-18T14:56:29.263Z,80.70
2022-12-18T14:59:41.106Z,62.05
2022-12-18T15:02:59.363Z,69.25
2022-12-18T15:06:46.888Z,84.25
2022-12-18T15:10:07.076Z,75.93
2022-12-18T15:13:28.395Z,90.20
2022-12-18T15:16:42.214Z,69.65
2022-12-18T15:19:56.191Z,85.00
2022-12-18T15:23:09.530Z,73.80
2022-12-18T15:26:20.291Z,80.50
2022-12-18T15:29:32.411Z,72.30
2022-12-18T15:32:48.405Z,81.40
2022-12-18T15:36:08.992Z,61.92
2022-12-18T15:39:16.303Z,69.57
2022-12-18T15:42:43.956Z,79.35
2022-12-18T15:45:56.738Z,54.25
2022-12-18T15:49:08.164Z,54.10
2022-12-18T15:52:17.370Z,66.80
2022-12-18T15:55:43.210Z,74.97
2022-12-18T15:58:47.556Z,66.63
2022-12-18T16:01:57.712Z,80.75
2022-12-18T16:05:01.995Z,72.22
2022-12-18T16:08:06.341Z,69.88
2022-12-18T16:11:39.736Z,70.03
2022-12-18T16:14:43.847Z,88.75
2022-12-18T16:17:49.374Z,103.80
2022-12-18T16:20:53.310Z,91.35
2022-12-18T16:23:57.574Z,82.40
2022-12-18T16:27:04.030Z,73.50
2022-12-18T16:30:16.230Z,78.18
2022-12-18T16:33:22.895Z,62.47
2022-12-18T16:36:27.703Z,50.33
2022-12-18T16:39:35.271Z,63.20
2022-12-18T16:42:42.935Z,88.60
2022-12-18T16:45:49.093Z,120.25
2022-12-18T16:48:55.775Z,100.00
2022-12-18T16:52:01.815Z,111.97
2022-12-18T16:55:06.278Z,82.68
2022-12-18T16:58:10.825Z,63.47
2022-12-18T17:01:14.423Z,56.05
2022-12-18T17:04:18.602Z,88.70
2022-12-18T17:07:22.661Z,91.32
2022-12-18T17:10:28.896Z,78.43
2022-12-18T17:13:35.665Z,93.90
2022-12-18T17:16:41.844Z,98.53
2022-12-18T17:19:46.581Z,90.30
2022-12-18T17:22:50.568Z,89.82
2022-12-18T17:26:00.369Z,95.00
2022-12-18T17:29:05.655Z,74.95
2022-12-18T17:32:10.716Z,83.07
2022-12-18T17:35:14.728Z,52.83
2022-12-18T17:38:18.791Z,68.32
2022-12-18T17:41:23.067Z,60.28
2022-12-18T17:44:27.721Z,58.03
2022-12-18T17:47:32.001Z,53.63
2022-12-18T17:50:36.915Z,57.22
2022-12-18T17:53:42.427Z,58.08
2022-12-18T17:56:48.235Z,59.28
2022-12-18T17:59:53.696Z,49.33
2022-12-18T18:03:00.011Z,60.67
2022-12-18T18:06:06.046Z,51.75
2022-12-18T18:09:15.934Z,34.88
2022-12-18T18:12:40.201Z,54.85
2022-12-18T18:15:44.702Z,58.75
2022-12-18T18:18:49.869Z,65.88
2022-12-18T18:21:55.291Z,78.78
2022-12-18T18:25:01.234Z,68.97
2022-12-18T18:28:06.173Z,70.72
2022-12-18T18:31:12.201Z,83.10
2022-12-18T18:34:18.836Z,69.90
2022-12-18T18:37:23.199Z,66.95
2022-12-18T18:40:28.639Z,76.40
2022-12-18T18:43:34.435Z,63.23
2022-12-18T18:46:40.435Z,50.22
2022-12-18T18:49:47.122Z,58.00
2022-12-18T18:52:52.925Z,42.25
2022-12-18T18:56:40.825Z,58.67
2022-12-18T18:59:31.940Z,53.33
2022-12-18T19:02:37.034Z,54.40
2022-12-18T19:05:44.458Z,54.15
2022-12-18T19:08:54.060Z,46.05
2022-12-18T19:12:17.787Z,54.70
2022-12-18T19:15:22.779Z,63.03
2022-12-18T19:18:28.137Z,57.08
2022-12-18T19:21:34.365Z,61.75
2022-12-18T19:24:40.877Z,67.07
2022-12-18T19:27:44.814Z,58.05
2022-12-18T19:30:49.819Z,51.13
2022-12-18T19:33:54.602Z,50.65
2022-12-18T19:37:00.227Z,47.63
2022-12-18T19:40:12.346Z,55.28
2022-12-18T19:43:18.274Z,57.50
2022-12-18T19:46:30.379Z,50.45
2022-12-18T19:49:44.044Z,39.95
2022-12-18T19:52:49.918Z,53.20
2022-12-18T19:55:53.867Z,48.40
2022-12-18T19:59:02.715Z,43.78
2022-12-18T20:02:11.371Z,48.47
2022-12-18T20:05:19.726Z,44.35
2022-12-18T20:08:28.983Z,45.22
2022-12-18T20:11:41.773Z,51.63
2022-12-18T20:14:46.494Z,47.65
2022-12-18T20:17:50.407Z,42.80
2022-12-18T20:20:55.200Z,45.97
2022-12-18T20:24:02.012Z,44.15
2022-12-18T20:27:07.704Z,49.08
2022-12-18T20:30:14.250Z,52.20
2022-12-18T20:33:17.625Z,46.47
2022-12-18T20:36:26.932Z,46.67
2022-12-18T20:39:30.922Z,44.45
2022-12-18T20:42:34.719Z,42.53
2022-12-18T20:45:39.412Z,43.22
2022-12-18T20:48:46.167Z,37.92
2022-12-18T20:51:54.337Z,39.83
2022-12-18T20:54:58.840Z,46.08
2022-12-18T20:58:03.941Z,42.80
2022-12-18T21:01:10.737Z,44.60
2022-12-18T21:04:14.027Z,40.70
2022-12-18T21:07:18.473Z,41.75
2022-12-18T21:10:22.243Z,40.75
2022-12-18T21:13:26.224Z,45.03
2022-12-18T21:16:32.516Z,40.40
2022-12-18T21:19:36.313Z,42.58
2022-12-18T21:22:40.613Z,33.83
2022-12-18T21:25:43.670Z,35.38
2022-12-18T21:28:47.449Z,33.42
2022-12-18T21:31:53.154Z,38.20
2022-12-18T21:34:56.873Z,34.47
2022-12-18T21:37:59.930Z,32.88
2022-12-18T21:41:08.727Z,31.38
2022-12-18T21:44:14.652Z,29.53
2022-12-18T21:47:22.843Z,34.03
2022-12-18T21:50:27.119Z,36.67
2022-12-18T21:53:30.949Z,31.65
2022-12-18T21:57:05.236Z,29.13
2022-12-18T22:00:19.107Z,33.22
2022-12-18T22:03:23.719Z,31.45
2022-12-18T22:06:27.908Z,31.10
2022-12-18T22:09:32.804Z,31.55
2022-12-18T22:12:42.942Z,33.75
2022-12-18T22:15:48.397Z,33.80
2022-12-18T22:18:52.513Z,37.00
2022-12-18T22:21:55.919Z,30.77
2022-12-18T22:24:59.989Z,36.50
2022-12-18T22:28:21.674Z,34.50
2022-12-18T22:31:25.470Z,39.90
2022-12-18T22:34:28.829Z,32.03
2022-12-18T22:37:32.980Z,31.98
2022-12-18T22:40:39.003Z,38.20
2022-12-18T22:43:43.517Z,34.30
2022-12-18T22:46:52.316Z,27.98
2022-12-18T22:50:07.471Z,34.20
2022-12-18T22:53:11.289Z,30.73
2022-12-18T22:56:20.235Z,37.35
2022-12-18T22:59:25.049Z,37.15
2022-12-18T23:02:28.568Z,28.67
2022-12-18T23:05:32.789Z,36.30
2022-12-18T23:08:37.550Z,33.80
2022-12-18T23:11:40.566Z,39.45
2022-12-18T23:14:45.029Z,29.30
2022-12-18T23:17:48.711Z,34.10
2022-12-18T23:20:53.110Z,36.53
2022-12-18T23:23:57.708Z,33.15
2022-12-18T23:27:01.441Z,31.63
2022-12-18T23:30:08.414Z,28.67
2022-12-18T23:33:12.068Z,35.38
2022-12-18T23:36:16.456Z,31.50
2022-12-18T23:39:28.758Z,37.70
2022-12-18T23:42:32.242Z,42.60
2022-12-18T23:45:39.105Z,44.03
2022-12-18T23:48:43.178Z,42.47
2022-12-18T23:51:46.426Z,41.35
2022-12-18T23:54:50.381Z,45.78
2022-12-18T23:57:53.629Z,45.08
